createdAt,value
2022-11-16T00:03:13.249Z,36.13
2022-11-16T00:08:16.627Z,38.00
2022-11-16T00:13:20.667Z,31.77
2022-11-16T00:18:24.633Z,37.83
2022-11-16T00:23:27.731Z,42.97
2022-11-16T00:28:31.735Z,38.73
2022-11-16T00:33:36.109Z,42.47
2022-11-16T00:38:39.779Z,37.63
2022-11-16T00:43:43.396Z,39.40
2022-11-16T00:48:46.788Z,43.97
2022-11-16T00:53:50.259Z,35.87
2022-11-16T00:58:53.337Z,39.37
2022-11-16T01:03:56.435Z,40.57
2022-11-16T01:09:00.798Z,48.23
2022-11-16T01:14:07.541Z,45.30
2022-11-16T01:19:11.148Z,50.80
2022-11-16T01:24:14.809Z,45.37
2022-11-16T01:29:18.558Z,45.93
2022-11-16T01:34:22.675Z,50.63
2022-11-16T01:39:26.290Z,52.77
2022-11-16T01:44:32.668Z,57.93
2022-11-16T01:49:41.119Z,47.60
2022-11-16T01:54:47.860Z,52.57
2022-11-16T01:59:55.597Z,43.70
2022-11-16T02:05:00.007Z,46.47
2022-11-16T02:10:08.870Z,42.80
2022-11-16T02:15:27.372Z,48.50
2022-11-16T02:20:42.662Z,38.03
2022-11-16T02:26:15.268Z,39.03
2022-11-16T02:31:25.443Z,42.63
2022-11-16T02:36:28.806Z,38.40
2022-11-16T02:41:36.296Z,37.60
2022-11-16T02:46:44.567Z,40.27
2022-11-16T02:51:49.006Z,37.93
2022-11-16T02:56:58.125Z,36.03
2022-11-16T03:02:29.598Z,42.90
2022-11-16T03:07:39.466Z,43.87
2022-11-16T03:12:43.092Z,50.13
2022-11-16T03:17:48.717Z,40.90
2022-11-16T03:23:07.057Z,50.90
2022-11-16T03:28:23.464Z,37.97
2022-11-16T03:33:33.234Z,41.83
2022-11-16T03:38:40.199Z,33.87
2022-11-16T03:43:45.936Z,34.53
2022-11-16T03:48:49.267Z,35.37
2022-11-16T03:53:52.855Z,24.70
2022-11-16T03:58:56.436Z,43.37
2022-11-16T04:04:00.335Z,31.20
2022-11-16T04:09:29.597Z,36.43
2022-11-16T04:14:51.775Z,27.70
2022-11-16T04:20:13.587Z,17.13
2022-11-16T04:25:23.897Z,13.73
2022-11-16T04:30:47.787Z,10.53
2022-11-16T04:36:09.569Z,16.70
2022-11-16T04:41:32.899Z,24.93
2022-11-16T04:46:54.719Z,19.70
2022-11-16T04:51:58.068Z,17.43
2022-11-16T04:57:01.523Z,15.80
2022-11-16T05:02:10.856Z,23.50
2022-11-16T05:07:15.354Z,18.60
2022-11-16T05:12:24.365Z,25.50
2022-11-16T05:17:28.807Z,31.03
2022-11-16T05:22:31.921Z,26.20
2022-11-16T05:27:35.899Z,27.40
2022-11-16T05:32:39.281Z,30.40
2022-11-16T05:37:42.940Z,29.87
2022-11-16T05:42:46.470Z,25.90
2022-11-16T05:47:50.009Z,30.00
2022-11-16T05:52:53.496Z,30.63
2022-11-16T05:57:56.593Z,32.27
2022-11-16T06:03:00.130Z,33.27
2022-11-16T06:08:03.731Z,41.00
2022-11-16T06:13:07.121Z,30.07
2022-11-16T06:18:10.391Z,31.27
2022-11-16T06:23:14.373Z,30.27
2022-11-16T06:28:17.948Z,30.43
2022-11-16T06:33:21.165Z,19.53
2022-11-16T06:38:24.810Z,20.63
2022-11-16T06:43:28.083Z,14.70
2022-11-16T06:48:32.355Z,10.30
2022-11-16T06:53:36.334Z,12.17
2022-11-16T06:58:42.583Z,11.10
2022-11-16T07:03:46.152Z,9.23
2022-11-16T07:08:49.285Z,12.40
2022-11-16T07:13:52.833Z,7.47
2022-11-16T07:18:58.260Z,6.87
2022-11-16T07:24:01.662Z,4.47
2022-11-16T07:29:05.390Z,5.97
2022-11-16T07:34:08.697Z,3.33
2022-11-16T07:39:12.157Z,5.37
2022-11-16T07:44:16.080Z,3.40
2022-11-16T07:49:20.690Z,3.83
2022-11-16T07:54:25.259Z,5.50
2022-11-16T07:59:32.412Z,4.70
2022-11-16T08:04:35.578Z,3.80
2022-11-16T08:09:39.837Z,3.03
2022-11-16T08:14:43.711Z,1.93
2022-11-16T08:19:47.162Z,3.60
2022-11-16T08:24:50.560Z,2.00
2022-11-16T08:29:53.639Z,1.90
2022-11-16T08:34:57.268Z,1.67
2022-11-16T08:40:00.684Z,2.60
2022-11-16T08:45:04.700Z,1.70
2022-11-16T08:50:08.379Z,1.73
2022-11-16T08:55:14.551Z,1.70
2022-11-16T09:00:18.710Z,2.30
2022-11-16T09:05:21.775Z,2.17
2022-11-16T09:10:26.634Z,2.50
2022-11-16T09:15:30.302Z,2.17
2022-11-16T09:20:33.908Z,2.00
2022-11-16T09:25:37.438Z,2.97
2022-11-16T09:30:40.833Z,2.23
2022-11-16T09:35:44.284Z,3.67
2022-11-16T09:40:48.547Z,2.00
2022-11-16T09:46:34.479Z,2.30
2022-11-16T09:51:39.710Z,2.00
2022-11-16T09:56:44.581Z,2.80
2022-11-16T10:02:04.172Z,2.73
2022-11-16T10:07:18.103Z,3.10
2022-11-16T10:12:30.744Z,1.93
2022-11-16T10:17:42.453Z,2.90
2022-11-16T10:23:01.471Z,2.57
2022-11-16T10:28:30.232Z,2.77
2022-11-16T10:33:37.760Z,1.87
2022-11-16T10:38:43.021Z,1.90
2022-11-16T10:43:48.895Z,1.77
2022-11-16T10:49:00.718Z,1.77
2022-11-16T10:54:12.460Z,1.10
2022-11-16T10:59:19.363Z,2.23
2022-11-16T11:04:32.275Z,2.57
2022-11-16T11:09:42.441Z,2.20
2022-11-16T11:15:12.028Z,2.10
2022-11-16T11:20:18.525Z,2.50
2022-11-16T11:25:34.252Z,1.90
2022-11-16T11:30:37.585Z,4.83
2022-11-16T11:35:40.829Z,3.10
2022-11-16T11:41:00.497Z,2.80
2022-11-16T11:46:06.339Z,3.00
2022-11-16T11:51:28.500Z,4.10
2022-11-16T11:56:34.787Z,3.23
2022-11-16T12:02:05.352Z,4.13
2022-11-16T12:07:24.253Z,4.47
2022-11-16T12:13:02.429Z,3.33
2022-11-16T12:18:15.650Z,4.27
2022-11-16T12:23:40.191Z,4.77
2022-11-16T12:29:07.728Z,4.13
2022-11-16T12:34:23.159Z,2.80
2022-11-16T12:39:36.763Z,3.17
2022-11-16T12:44:46.226Z,4.53
2022-11-16T12:50:17.371Z,4.67
2022-11-16T12:55:40.902Z,4.77
2022-11-16T13:01:09.106Z,3.83
2022-11-16T13:06:38.349Z,3.83
2022-11-16T13:11:48.341Z,3.07
2022-11-16T13:16:53.248Z,3.63
2022-11-16T13:22:03.421Z,2.60
2022-11-16T13:27:15.665Z,3.67
2022-11-16T13:32:40.919Z,3.43
2022-11-16T13:37:52.600Z,4.70
2022-11-16T13:43:06.713Z,3.50
2022-11-16T13:48:38.652Z,2.20
2022-11-16T13:54:43.533Z,2.40
2022-11-16T13:59:23.550Z,3.03
2022-11-16T14:04:49.114Z,2.60
2022-11-16T14:09:52.470Z,3.60
2022-11-16T14:15:25.553Z,6.17
2022-11-16T14:20:59.652Z,3.03
2022-11-16T14:26:06.209Z,3.43
2022-11-16T14:31:25.843Z,3.50
2022-11-16T14:36:41.729Z,4.10
2022-11-16T14:41:47.208Z,5.53
2022-11-16T14:46:50.937Z,3.57
2022-11-16T14:52:00.750Z,4.80
2022-11-16T14:57:13.768Z,5.83
2022-11-16T15:02:21.777Z,3.03
2022-11-16T15:07:29.400Z,5.07
2022-11-16T15:12:42.745Z,5.60
2022-11-16T15:17:59.874Z,4.17
2022-11-16T15:23:05.622Z,4.60
2022-11-16T15:28:23.347Z,4.47
2022-11-16T15:33:30.214Z,4.30
2022-11-16T15:38:34.819Z,5.43
2022-11-16T15:44:11.731Z,4.20
2022-11-16T15:49:37.209Z,5.00
2022-11-16T15:54:58.958Z,5.77
2022-11-16T16:00:02.530Z,4.20
2022-11-16T16:05:06.813Z,4.23
2022-11-16T16:10:28.129Z,3.37
2022-11-16T16:15:34.710Z,2.83
2022-11-16T16:20:47.743Z,6.57
2022-11-16T16:25:51.709Z,5.47
2022-11-16T16:30:55.999Z,3.40
2022-11-16T16:36:02.136Z,3.60
2022-11-16T16:41:07.629Z,3.17
2022-11-16T16:46:13.471Z,3.87
2022-11-16T16:51:17.090Z,3.53
2022-11-16T16:56:20.834Z,3.40
2022-11-16T17:01:24.457Z,3.00
2022-11-16T17:06:29.190Z,4.50
2022-11-16T17:11:32.663Z,4.73
2022-11-16T17:16:37.072Z,3.83
2022-11-16T17:21:41.280Z,4.83
2022-11-16T17:26:48.879Z,4.37
2022-11-16T17:31:53.291Z,3.87
2022-11-16T17:36:57.540Z,5.70
2022-11-16T17:42:01.692Z,3.40
2022-11-16T17:47:06.006Z,5.60
2022-11-16T17:52:10.402Z,4.50
2022-11-16T17:57:15.739Z,3.90
2022-11-16T18:02:21.879Z,4.07
2022-11-16T18:07:42.447Z,3.63
2022-11-16T18:12:47.559Z,5.23
2022-11-16T18:18:01.511Z,5.17
2022-11-16T18:23:07.320Z,6.37
2022-11-16T18:28:12.122Z,5.60
2022-11-16T18:33:17.331Z,6.90
2022-11-16T18:38:21.850Z,5.00
2022-11-16T18:43:26.549Z,7.50
2022-11-16T18:48:30.773Z,4.47
2022-11-16T18:53:35.227Z,4.43
2022-11-16T18:58:51.018Z,2.83
2022-11-16T19:03:57.872Z,9.10
2022-11-16T19:09:06.093Z,3.93
2022-11-16T19:14:10.960Z,4.53
2022-11-16T19:19:15.890Z,4.00
2022-11-16T19:24:20.906Z,6.50
2022-11-16T19:29:25.449Z,4.33
2022-11-16T19:34:33.344Z,6.03
2022-11-16T19:39:38.734Z,11.73
2022-11-16T19:44:43.960Z,5.73
2022-11-16T19:49:49.496Z,5.73
2022-11-16T19:54:53.671Z,5.50
2022-11-16T19:59:59.498Z,4.73
2022-11-16T20:05:04.109Z,7.17
2022-11-16T20:10:09.766Z,5.43
2022-11-16T20:15:14.228Z,6.43
2022-11-16T20:20:19.073Z,5.20
2022-11-16T20:25:24.086Z,4.43
2022-11-16T20:30:28.399Z,3.40
2022-11-16T20:35:35.956Z,4.57
2022-11-16T20:40:40.530Z,4.27
2022-11-16T20:45:45.187Z,5.93
2022-11-16T20:50:54.785Z,3.53
2022-11-16T20:56:00.403Z,5.20
2022-11-16T21:01:34.096Z,6.13
2022-11-16T21:06:38.648Z,11.57
2022-11-16T21:12:00.503Z,5.73
2022-11-16T21:17:04.720Z,4.50
2022-11-16T21:22:08.755Z,7.67
2022-11-16T21:27:12.940Z,6.97
2022-11-16T21:32:17.708Z,6.43
2022-11-16T21:37:21.327Z,6.23
2022-11-16T21:42:25.626Z,5.83
2022-11-16T21:47:29.577Z,6.23
2022-11-16T21:52:33.018Z,5.73
2022-11-16T21:57:36.382Z,17.37
2022-11-16T22:02:40.707Z,8.43
2022-11-16T22:07:47.088Z,5.23
2022-11-16T22:12:52.058Z,6.47
2022-11-16T22:17:55.627Z,6.77
2022-11-16T22:22:59.176Z,2.87
2022-11-16T22:33:26.219Z,9.80
2022-11-16T22:38:29.697Z,6.70
2022-11-16T22:43:33.584Z,8.00
2022-11-16T22:48:40.202Z,5.87
2022-11-16T22:53:43.701Z,5.27
2022-11-16T22:58:47.215Z,5.63
2022-11-16T23:03:51.154Z,5.57
2022-11-16T23:08:54.785Z,4.60
2022-11-16T23:14:17.092Z,3.97
2022-11-16T23:19:40.518Z,6.40
2022-11-16T23:25:03.090Z,4.77
2022-11-16T23:30:12.445Z,4.27
2022-11-16T23:35:16.978Z,8.30
2022-11-16T23:40:22.052Z,6.30
2022-11-16T23:45:25.457Z,6.40
2022-11-16T23:50:29.089Z,6.37
2022-11-16T23:55:38.899Z,6.37
